Time;durP1;ratioP1;P1;durP2;ratioP2;P2;SDS_P1;SDS_P2;PMS_P1;PMS_P2;Temp;Humidity;BMP_temperature;BMP_pressure;BME280_temperature;BME280_humidity;BME280_pressure;Samples;Min_cycle;Max_cycle;Signal;HPM_P1;HPM_P2
2022/05/27 00:00:42;;;;;;;6.83;1.90;;;18.70;65.50;;;;;;4883145;29;20469;-72
2022/05/27 00:03:10;;;;;;;5.43;2.10;;;18.70;65.50;;;;;;4851448;29;20488;-72
2022/05/27 00:05:39;;;;;;;4.90;2.00;;;18.70;65.60;;;;;;4873872;29;20489;-72
2022/05/27 00:08:07;;;;;;;5.70;2.00;;;18.70;65.60;;;;;;4884006;29;20479;-73
2022/05/27 00:10:36;;;;;;;6.00;2.10;;;18.70;65.70;;;;;;4886488;29;20523;-73
2022/05/27 00:13:04;;;;;;;5.17;2.27;;;18.70;65.70;;;;;;4868842;29;20591;-73
2022/05/27 00:15:32;;;;;;;4.73;1.73;;;18.70;65.70;;;;;;4880464;29;20471;-73
2022/05/27 00:18:01;;;;;;;6.00;2.00;;;18.70;65.70;;;;;;4867811;29;20470;-73
2022/05/27 00:20:29;;;;;;;4.77;2.17;;;18.70;65.70;;;;;;4873601;29;20451;-73
2022/05/27 00:22:57;;;;;;;6.60;2.23;;;18.70;65.70;;;;;;4871174;29;20502;-73
2022/05/27 00:25:25;;;;;;;5.57;2.00;;;18.70;65.70;;;;;;4873322;29;20474;-73
2022/05/27 00:27:53;;;;;;;5.17;2.10;;;18.60;65.80;;;;;;4875114;29;20472;-74
2022/05/27 00:30:21;;;;;;;6.03;1.97;;;18.60;65.80;;;;;;4883725;29;20464;-73
2022/05/27 00:32:49;;;;;;;4.70;2.07;;;18.60;65.90;;;;;;4871145;29;20504;-73
2022/05/27 00:35:19;;;;;;;7.40;2.50;;;18.60;66.00;;;;;;4869260;29;20472;-72
2022/05/27 00:37:46;;;;;;;5.37;1.97;;;18.50;66.00;;;;;;4871020;29;20475;-72
2022/05/27 00:40:16;;;;;;;6.67;2.47;;;18.50;66.10;;;;;;4868272;29;20468;-73
2022/05/27 00:42:48;;;;;;;5.13;2.13;;;18.50;66.20;;;;;;4852560;29;21056;-73
2022/05/27 00:45:34;;;;;;;6.00;2.50;;;18.50;66.20;;;;;;4864788;29;20470;-73
2022/05/27 00:48:11;;;;;;;5.83;2.13;;;18.50;66.20;;;;;;4870861;29;20485;-73
2022/05/27 00:50:47;;;;;;;6.17;2.20;;;18.50;66.30;;;;;;4872829;29;20477;-73
2022/05/27 00:53:24;;;;;;;5.97;2.10;;;18.50;66.30;;;;;;4871235;29;20559;-73
2022/05/27 00:56:03;;;;;;;8.20;2.13;;;18.40;66.40;;;;;;4872718;29;20479;-73
2022/05/27 00:58:40;;;;;;;5.70;2.10;;;18.40;66.40;;;;;;4879230;29;20455;-73
2022/05/27 01:01:14;;;;;;;5.70;2.17;;;18.40;66.50;;;;;;4870551;29;20902;-73
2022/05/27 01:03:51;;;;;;;6.23;2.27;;;18.40;66.50;;;;;;4879754;29;20485;-73
2022/05/27 01:06:33;;;;;;;5.70;2.30;;;18.40;66.50;;;;;;4877193;29;20983;-74
2022/05/27 01:09:13;;;;;;;6.70;2.20;;;18.30;66.60;;;;;;4870625;29;20486;-74
2022/05/27 01:12:17;;;;;;;8.43;2.23;;;18.30;66.70;;;;;;4859558;29;20467;-74
2022/05/27 01:15:23;;;;;;;6.60;2.20;;;18.30;66.80;;;;;;4877095;29;20497;-73
2022/05/27 01:18:18;;;;;;;6.23;1.93;;;18.30;66.80;;;;;;4875232;29;20494;-73
2022/05/27 01:21:01;;;;;;;4.40;1.80;;;18.20;66.80;;;;;;4873464;29;20471;-74
2022/05/27 01:24:11;;;;;;;10.23;2.40;;;18.20;66.90;;;;;;4874302;29;20495;-73
2022/05/27 01:27:23;;;;;;;5.10;2.13;;;18.10;67.00;;;;;;4860717;29;20828;-72
2022/05/27 01:30:32;;;;;;;6.10;2.20;;;18.10;67.20;;;;;;4861628;29;20839;-74
2022/05/27 01:33:36;;;;;;;5.53;1.87;;;18.10;67.30;;;;;;4876109;29;20490;-72
2022/05/27 01:36:16;;;;;;;5.20;1.90;;;18.10;67.40;;;;;;4872409;29;20833;-74
2022/05/27 01:38:56;;;;;;;4.90;2.07;;;18.00;67.40;;;;;;4875821;29;20559;-72
2022/05/27 01:41:37;;;;;;;7.43;2.30;;;18.10;67.50;;;;;;4875768;29;20872;-74
2022/05/27 01:44:14;;;;;;;5.23;1.97;;;18.10;67.50;;;;;;4871199;29;20840;-72
2022/05/27 01:46:51;;;;;;;4.60;2.07;;;18.10;67.60;;;;;;4873397;29;20747;-74
2022/05/27 01:49:32;;;;;;;5.83;2.10;;;18.10;67.50;;;;;;4875645;29;21039;-74
2022/05/27 01:52:20;;;;;;;5.00;2.80;;;18.10;67.50;;;;;;4873666;29;21046;-74
2022/05/27 01:55:03;;;;;;;6.50;2.10;;;18.10;67.70;;;;;;4870666;29;20555;-74
2022/05/27 01:57:40;;;;;;;5.30;1.90;;;18.10;67.70;;;;;;4873683;29;20991;-74
2022/05/27 02:00:22;;;;;;;5.70;2.57;;;18.00;67.80;;;;;;4873990;29;20870;-75
2022/05/27 02:02:59;;;;;;;6.07;2.00;;;18.00;67.80;;;;;;4875515;29;20546;-74
2022/05/27 02:05:45;;;;;;;6.70;2.00;;;18.00;67.90;;;;;;4873329;29;20482;-74
2022/05/27 02:08:25;;;;;;;7.07;2.43;;;18.00;67.90;;;;;;4869809;29;20474;-74
2022/05/27 02:11:06;;;;;;;4.93;2.00;;;18.00;67.90;;;;;;4890897;29;20493;-74
2022/05/27 02:13:46;;;;;;;5.87;2.07;;;18.00;67.90;;;;;;4881108;29;21012;-73
2022/05/27 02:16:28;;;;;;;6.43;2.17;;;18.00;68.00;;;;;;4871484;29;20495;-73
2022/05/27 02:19:11;;;;;;;6.30;2.33;;;18.00;68.10;;;;;;4879157;29;20464;-73
2022/05/27 02:21:47;;;;;;;6.03;2.10;;;18.00;68.10;;;;;;4874312;29;20864;-74
2022/05/27 02:24:36;;;;;;;5.47;1.97;;;18.00;68.00;;;;;;4873985;29;20471;-73
2022/05/27 02:27:12;;;;;;;5.57;1.90;;;18.00;68.10;;;;;;4874297;29;20566;-74
2022/05/27 02:29:47;;;;;;;7.73;2.87;;;18.00;68.00;;;;;;4873788;29;21004;-74
2022/05/27 02:32:26;;;;;;;7.00;2.40;;;18.00;68.10;;;;;;4870878;29;21179;-72
2022/05/27 02:35:08;;;;;;;4.30;2.03;;;17.90;68.10;;;;;;4875142;29;20490;-74
2022/05/27 02:37:49;;;;;;;9.03;2.20;;;17.90;68.10;;;;;;4875618;29;20478;-74
2022/05/27 02:40:24;;;;;;;6.33;2.30;;;17.90;68.20;;;;;;4871220;29;21205;-74
2022/05/27 02:43:10;;;;;;;6.57;2.37;;;17.90;68.20;;;;;;4873967;29;20515;-73
2022/05/27 02:45:52;;;;;;;6.30;1.87;;;17.90;68.20;;;;;;4873588;29;20895;-74
2022/05/27 02:48:32;;;;;;;5.40;2.20;;;17.90;68.20;;;;;;4874108;29;20471;-74
2022/05/27 02:51:24;;;;;;;6.13;2.37;;;17.90;68.20;;;;;;4868728;29;20496;-74
2022/05/27 02:54:14;;;;;;;4.40;1.90;;;17.80;68.20;;;;;;4874502;29;20567;-74
2022/05/27 02:56:55;;;;;;;5.70;1.97;;;17.80;68.10;;;;;;4856881;29;20467;-74
2022/05/27 02:59:34;;;;;;;5.33;2.17;;;17.70;68.20;;;;;;4872209;29;20467;-74
2022/05/27 03:02:09;;;;;;;7.33;2.20;;;17.70;68.30;;;;;;4867933;29;22150;-74
2022/05/27 03:04:45;;;;;;;8.40;2.53;;;17.60;68.40;;;;;;4869635;29;20478;-74
2022/05/27 03:07:33;;;;;;;5.93;2.40;;;17.50;68.60;;;;;;4874242;29;20463;-72
2022/05/27 03:10:41;;;;;;;5.53;2.47;;;17.50;68.70;;;;;;4873515;29;20579;-76
2022/05/27 03:13:49;;;;;;;7.13;2.60;;;17.50;68.90;;;;;;4836344;29;20713;-74
2022/05/27 03:16:30;;;;;;;5.63;2.10;;;17.50;69.10;;;;;;4846569;29;20546;-72
2022/05/27 03:19:30;;;;;;;7.20;2.77;;;17.50;69.10;;;;;;4865811;29;20489;-72
2022/05/27 03:22:19;;;;;;;5.80;2.37;;;17.50;69.20;;;;;;4869520;29;20463;-74
2022/05/27 03:25:08;;;;;;;5.13;2.50;;;17.50;69.30;;;;;;4856225;29;20522;-74
2022/05/27 03:27:43;;;;;;;7.20;2.50;;;17.50;69.50;;;;;;4873870;29;20503;-74
2022/05/27 03:30:25;;;;;;;5.63;2.40;;;17.50;69.50;;;;;;4868933;29;20553;-73
2022/05/27 03:33:12;;;;;;;6.03;3.03;;;17.60;69.60;;;;;;4874541;29;20485;-72
2022/05/27 03:35:52;;;;;;;6.33;2.83;;;17.50;69.60;;;;;;4873483;29;20965;-74
2022/05/27 03:38:30;;;;;;;9.43;3.10;;;17.50;69.70;;;;;;4874230;29;20477;-74
2022/05/27 03:41:07;;;;;;;4.80;2.60;;;17.50;69.80;;;;;;4867034;29;20504;-74
2022/05/27 03:43:43;;;;;;;6.27;3.27;;;17.50;69.90;;;;;;4873742;29;20549;-74
2022/05/27 03:46:14;;;;;;;5.67;3.00;;;17.50;69.90;;;;;;4868742;29;20554;-72
2022/05/27 03:48:46;;;;;;;5.90;2.33;;;17.50;70.00;;;;;;4871513;29;20477;-73
2022/05/27 03:51:23;;;;;;;6.80;2.63;;;17.50;70.00;;;;;;4872019;29;20493;-73
2022/05/27 03:54:07;;;;;;;6.00;2.77;;;17.50;70.10;;;;;;4873741;29;20582;-73
2022/05/27 03:56:49;;;;;;;5.57;2.90;;;17.60;70.10;;;;;;4874989;29;20492;-74
2022/05/27 03:59:20;;;;;;;8.13;3.00;;;17.60;70.20;;;;;;4876055;29;20561;-72
2022/05/27 04:01:57;;;;;;;7.17;3.23;;;17.60;70.20;;;;;;4870866;29;20553;-72
2022/05/27 04:04:33;;;;;;;5.90;3.00;;;17.60;70.20;;;;;;4867624;29;20502;-74
2022/05/27 04:07:06;;;;;;;9.80;3.70;;;17.60;70.40;;;;;;4873303;29;20527;-72
2022/05/27 04:09:36;;;;;;;6.77;3.10;;;17.60;70.60;;;;;;4870685;29;20649;-74
2022/05/27 04:12:11;;;;;;;6.63;3.00;;;17.60;70.40;;;;;;4854650;29;20475;-74
2022/05/27 04:14:54;;;;;;;8.87;3.57;;;17.60;70.60;;;;;;4872966;29;20519;-73
2022/05/27 04:17:34;;;;;;;6.00;3.17;;;17.60;70.70;;;;;;4874021;29;20483;-73
2022/05/27 04:20:23;;;;;;;8.73;3.17;;;17.60;70.70;;;;;;4873584;29;20474;-73
2022/05/27 04:23:00;;;;;;;6.60;3.23;;;17.60;70.60;;;;;;4863025;29;20508;-73
2022/05/27 04:25:31;;;;;;;6.30;3.00;;;17.60;70.70;;;;;;4869057;29;20499;-72
2022/05/27 04:28:04;;;;;;;6.20;3.07;;;17.70;70.80;;;;;;4871066;29;20574;-74
2022/05/27 04:30:32;;;;;;;5.80;3.00;;;17.70;70.70;;;;;;4869943;29;20479;-74
2022/05/27 04:32:59;;;;;;;7.07;3.20;;;17.70;70.80;;;;;;4870882;29;20494;-74
2022/05/27 04:35:27;;;;;;;5.70;2.90;;;17.70;70.80;;;;;;4858634;29;20479;-74
2022/05/27 04:37:56;;;;;;;6.50;2.57;;;17.80;70.90;;;;;;4875311;29;20479;-74
2022/05/27 04:40:24;;;;;;;5.70;2.73;;;17.80;70.90;;;;;;4874394;29;20472;-74
2022/05/27 04:42:52;;;;;;;6.47;3.30;;;17.80;70.90;;;;;;4876561;29;20502;-74
2022/05/27 04:45:21;;;;;;;7.47;3.83;;;17.80;70.90;;;;;;4857930;29;20500;-74
2022/05/27 04:47:50;;;;;;;6.40;2.80;;;17.80;71.00;;;;;;4878611;29;20518;-74
2022/05/27 04:50:19;;;;;;;9.20;3.20;;;17.80;71.00;;;;;;4871185;29;20482;-74
2022/05/27 04:52:47;;;;;;;7.27;2.87;;;17.80;71.00;;;;;;4874474;29;20521;-74
2022/05/27 04:55:17;;;;;;;7.77;2.53;;;17.90;71.00;;;;;;4875126;29;20479;-74
2022/05/27 04:57:49;;;;;;;7.90;3.13;;;17.90;71.00;;;;;;4877072;29;20503;-74
2022/05/27 05:00:20;;;;;;;6.40;3.03;;;17.90;71.10;;;;;;4873043;29;20463;-74
2022/05/27 05:02:50;;;;;;;5.57;2.90;;;17.90;71.10;;;;;;4877492;29;20495;-74
2022/05/27 05:05:21;;;;;;;10.17;3.40;;;17.90;71.10;;;;;;4875325;29;21043;-72
2022/05/27 05:07:52;;;;;;;5.90;3.27;;;17.90;71.20;;;;;;4878249;29;20970;-73
2022/05/27 05:10:22;;;;;;;5.53;2.97;;;18.00;71.20;;;;;;4883081;29;21179;-74
2022/05/27 05:12:51;;;;;;;5.60;2.90;;;18.00;71.10;;;;;;4873128;29;20639;-74
2022/05/27 05:15:20;;;;;;;6.13;3.07;;;17.90;71.10;;;;;;4864928;29;20838;-74
2022/05/27 05:17:50;;;;;;;6.73;3.17;;;18.00;71.20;;;;;;4894645;29;20491;-74
2022/05/27 05:20:22;;;;;;;8.10;3.80;;;18.00;71.20;;;;;;4879556;29;20840;-73
2022/05/27 05:22:50;;;;;;;7.37;3.37;;;18.00;71.30;;;;;;4873515;29;20502;-74
2022/05/27 05:25:18;;;;;;;5.40;2.90;;;18.00;71.30;;;;;;4876474;29;20526;-74
2022/05/27 05:27:47;;;;;;;8.80;3.20;;;18.00;71.30;;;;;;4875491;29;20467;-74
2022/05/27 05:30:18;;;;;;;5.83;2.90;;;18.00;71.30;;;;;;4876391;29;20522;-72
2022/05/27 05:32:46;;;;;;;7.37;3.53;;;18.00;71.30;;;;;;4874388;29;20494;-73
2022/05/27 05:35:16;;;;;;;5.67;3.10;;;18.00;71.30;;;;;;4874067;29;20483;-73
2022/05/27 05:37:44;;;;;;;6.63;3.13;;;18.10;71.30;;;;;;4876760;29;20510;-73
2022/05/27 05:40:14;;;;;;;7.20;3.60;;;18.00;71.30;;;;;;4856170;29;20483;-73
2022/05/27 05:42:43;;;;;;;7.03;3.50;;;18.10;71.40;;;;;;4875392;29;20487;-73
2022/05/27 05:45:12;;;;;;;7.27;3.40;;;18.10;71.40;;;;;;4875079;29;20578;-73
2022/05/27 05:47:40;;;;;;;7.80;3.00;;;18.10;71.40;;;;;;4871281;29;20468;-74
2022/05/27 05:50:10;;;;;;;7.37;3.53;;;18.10;71.40;;;;;;4872665;29;20542;-73
2022/05/27 05:52:39;;;;;;;7.63;3.20;;;18.10;71.30;;;;;;4874892;29;20495;-72
2022/05/27 05:55:09;;;;;;;6.00;3.40;;;18.10;71.30;;;;;;4871017;29;20467;-73
2022/05/27 05:57:41;;;;;;;10.80;3.13;;;18.10;71.40;;;;;;4873159;29;21065;-72
2022/05/27 06:00:11;;;;;;;7.30;2.87;;;18.10;71.40;;;;;;4875657;29;20828;-72
2022/05/27 06:02:40;;;;;;;7.10;3.53;;;18.10;71.40;;;;;;4873776;29;20566;-72
2022/05/27 06:05:09;;;;;;;6.73;3.03;;;18.20;71.40;;;;;;4873351;29;20844;-73
2022/05/27 06:07:39;;;;;;;6.50;3.60;;;18.20;71.40;;;;;;4873073;29;20467;-74
2022/05/27 06:10:08;;;;;;;8.40;3.20;;;18.20;71.50;;;;;;4871983;29;20483;-72
2022/05/27 06:12:37;;;;;;;5.33;2.70;;;18.20;71.40;;;;;;4878929;29;21575;-72
2022/05/27 06:15:08;;;;;;;5.20;3.20;;;18.20;71.40;;;;;;4876609;29;20459;-71
2022/05/27 06:17:36;;;;;;;8.03;2.77;;;18.30;71.50;;;;;;4875238;29;20502;-74
2022/05/27 06:20:06;;;;;;;9.00;3.37;;;18.30;71.40;;;;;;4874121;29;20481;-74
2022/05/27 06:22:34;;;;;;;6.83;3.37;;;18.40;71.40;;;;;;4875872;29;20491;-72
2022/05/27 06:25:04;;;;;;;12.20;2.93;;;18.40;71.40;;;;;;4875548;29;20511;-74
2022/05/27 06:27:33;;;;;;;5.90;3.10;;;18.50;71.50;;;;;;4877343;29;20448;-74
2022/05/27 06:35:34;;;;;;;7.00;3.23;;;18.70;71.20;;;;;;4874100;29;20479;-72
2022/05/27 06:38:02;;;;;;;6.40;3.00;;;18.70;71.10;;;;;;4874126;29;20469;-72
2022/05/27 06:40:31;;;;;;;7.00;3.30;;;18.70;71.10;;;;;;4874310;29;20486;-72
2022/05/27 06:42:59;;;;;;;6.30;3.30;;;18.70;71.20;;;;;;4867192;29;20498;-72
2022/05/27 06:45:27;;;;;;;7.47;3.27;;;18.70;71.20;;;;;;4873310;29;20474;-72
2022/05/27 06:47:55;;;;;;;5.63;3.00;;;18.80;71.20;;;;;;4875385;29;20466;-72
2022/05/27 06:50:23;;;;;;;7.30;2.97;;;18.90;71.30;;;;;;4874874;29;20994;-72
2022/05/27 06:52:56;;;;;;;5.30;2.50;;;19.00;71.20;;;;;;4873333;29;20513;-73
2022/05/27 06:55:24;;;;;;;9.57;3.23;;;19.00;70.90;;;;;;4872209;29;20490;-74
2022/05/27 06:57:53;;;;;;;6.20;2.80;;;19.10;70.80;;;;;;4880311;29;20818;-72
2022/05/27 07:00:21;;;;;;;7.53;2.53;;;19.10;70.80;;;;;;4871524;29;20536;-72
2022/05/27 07:02:49;;;;;;;5.10;2.30;;;19.10;70.90;;;;;;4871778;29;20493;-72
2022/05/27 07:05:17;;;;;;;8.93;2.77;;;19.10;70.80;;;;;;4875535;29;20476;-72
2022/05/27 07:07:45;;;;;;;9.30;2.70;;;19.10;70.70;;;;;;4874470;29;20481;-72
2022/05/27 07:10:13;;;;;;;6.83;2.60;;;19.10;70.70;;;;;;4875968;29;20472;-72
2022/05/27 07:12:41;;;;;;;5.40;2.70;;;19.10;70.60;;;;;;4866251;29;20493;-72
2022/05/27 07:15:11;;;;;;;5.03;2.20;;;19.10;70.50;;;;;;4872867;29;20531;-72
2022/05/27 07:17:39;;;;;;;4.40;1.90;;;19.10;70.60;;;;;;4871622;29;20467;-72
2022/05/27 07:20:09;;;;;;;4.90;2.57;;;19.00;70.70;;;;;;4874108;29;21040;-72
2022/05/27 07:22:37;;;;;;;5.63;2.23;;;19.00;70.70;;;;;;4850783;29;20905;-72
2022/05/27 07:25:05;;;;;;;6.60;2.60;;;19.00;70.70;;;;;;4857587;29;20467;-72
2022/05/27 07:27:33;;;;;;;5.80;2.10;;;19.00;70.90;;;;;;4874598;29;20464;-72
2022/05/27 07:30:01;;;;;;;7.03;2.40;;;19.10;70.80;;;;;;4872474;29;20463;-74
2022/05/27 07:32:33;;;;;;;4.60;2.40;;;19.20;70.70;;;;;;4869390;29;20494;-72
2022/05/27 07:35:01;;;;;;;5.70;2.10;;;19.20;70.70;;;;;;4871849;29;20479;-74
2022/05/27 07:37:29;;;;;;;6.57;2.60;;;19.20;70.70;;;;;;4869244;29;20865;-74
2022/05/27 07:39:56;;;;;;;6.40;2.30;;;19.30;70.50;;;;;;4870565;29;20985;-73
2022/05/27 07:42:24;;;;;;;6.80;2.40;;;19.30;70.50;;;;;;4876279;29;20483;-73
2022/05/27 07:44:52;;;;;;;5.33;2.27;;;19.20;70.40;;;;;;4876671;29;20486;-72
2022/05/27 07:47:21;;;;;;;5.30;2.00;;;19.20;70.40;;;;;;4874142;29;21029;-72
2022/05/27 07:49:50;;;;;;;7.83;2.40;;;19.20;70.40;;;;;;4886597;29;20456;-72
2022/05/27 07:52:18;;;;;;;5.40;2.10;;;19.20;70.40;;;;;;4890391;29;21009;-72
2022/05/27 07:54:47;;;;;;;6.33;2.50;;;19.20;70.40;;;;;;4862968;29;20472;-72
2022/05/27 07:57:28;;;;;;;4.60;2.10;;;19.20;70.40;;;;;;4866239;29;20467;-74
2022/05/27 08:00:01;;;;;;;5.10;2.53;;;19.10;70.30;;;;;;4872559;29;20482;-73
2022/05/27 08:02:39;;;;;;;4.67;2.20;;;19.00;70.30;;;;;;4868405;29;21039;-73
2022/05/27 08:05:11;;;;;;;5.13;2.50;;;19.00;70.40;;;;;;4873994;29;20468;-72
2022/05/27 08:07:39;;;;;;;4.80;2.20;;;19.00;70.50;;;;;;4890305;29;20480;-72
2022/05/27 08:10:08;;;;;;;5.80;2.23;;;19.00;70.50;;;;;;4893769;29;20449;-73
2022/05/27 08:12:36;;;;;;;7.40;2.60;;;19.00;70.50;;;;;;4890465;29;20506;-74
2022/05/27 08:15:11;;;;;;;6.10;2.63;;;19.00;70.40;;;;;;4888465;29;21188;-73
2022/05/27 08:17:40;;;;;;;6.63;2.43;;;18.90;70.30;;;;;;4885630;29;20483;-72
2022/05/27 08:20:12;;;;;;;5.93;2.57;;;18.90;70.40;;;;;;4894069;29;20979;-73
2022/05/27 08:22:40;;;;;;;5.40;2.73;;;18.90;70.40;;;;;;4877140;29;20494;-72
2022/05/27 08:25:09;;;;;;;5.17;2.53;;;18.80;70.40;;;;;;4888817;29;20471;-73
2022/05/27 08:27:37;;;;;;;6.30;2.53;;;18.80;70.40;;;;;;4892370;29;20454;-73
2022/05/27 08:30:07;;;;;;;5.20;2.60;;;18.80;70.40;;;;;;4869680;29;20500;-73
2022/05/27 08:32:35;;;;;;;5.27;2.43;;;18.80;70.50;;;;;;4893408;29;20482;-72
2022/05/27 08:38:11;;;;;;;5.50;2.50;;;18.70;70.60;;;;;;4833366;29;20478;-72
2022/05/27 08:41:03;;;;;;;5.40;2.37;;;18.70;70.60;;;;;;4833889;29;20535;-73
2022/05/27 08:43:37;;;;;;;6.80;2.53;;;18.70;70.70;;;;;;4841031;29;20499;-72
2022/05/27 08:46:17;;;;;;;6.87;2.60;;;18.70;70.70;;;;;;4876719;29;20932;-72
2022/05/27 08:48:48;;;;;;;5.40;2.83;;;18.60;70.70;;;;;;4881626;29;20484;-72
2022/05/27 08:51:42;;;;;;;5.23;2.73;;;18.60;70.70;;;;;;4856571;29;20455;-74
2022/05/27 08:54:15;;;;;;;4.77;2.63;;;18.60;70.70;;;;;;4873389;29;21058;-72
2022/05/27 08:59:37;;;;;;;6.10;2.67;;;18.60;70.90;;;;;;4872909;29;20471;-74
2022/05/27 09:02:13;;;;;;;7.43;3.20;;;18.50;70.90;;;;;;4871185;29;20482;-72
2022/05/27 09:04:50;;;;;;;6.00;2.63;;;18.50;70.90;;;;;;4878558;29;20455;-73
2022/05/27 09:07:30;;;;;;;6.23;3.47;;;18.60;71.00;;;;;;4858890;29;20472;-72
2022/05/27 09:10:02;;;;;;;6.73;3.47;;;18.50;70.90;;;;;;4872476;29;21199;-72
2022/05/27 09:12:45;;;;;;;9.87;3.40;;;18.50;70.90;;;;;;4871629;29;20506;-72
2022/05/27 09:15:33;;;;;;;7.03;3.30;;;18.50;70.90;;;;;;4871726;29;20474;-72
2022/05/27 09:18:06;;;;;;;6.40;3.10;;;18.50;70.90;;;;;;4868975;29;20520;-73
2022/05/27 09:20:47;;;;;;;6.53;3.60;;;18.50;70.90;;;;;;4887700;29;20462;-73
2022/05/27 09:23:43;;;;;;;6.43;3.50;;;18.50;71.00;;;;;;4876733;29;20501;-74
2022/05/27 09:26:18;;;;;;;7.53;3.00;;;18.40;70.90;;;;;;4846579;29;20467;-73
2022/05/27 09:28:54;;;;;;;8.53;3.53;;;18.40;70.90;;;;;;4871683;29;20477;-73
2022/05/27 09:31:31;;;;;;;6.23;3.40;;;18.40;70.90;;;;;;4874540;29;20475;-73
2022/05/27 09:33:59;;;;;;;7.13;4.53;;;18.40;71.00;;;;;;4875662;29;21087;-72
2022/05/27 09:36:34;;;;;;;6.03;3.60;;;18.40;71.00;;;;;;4877722;29;20487;-72
2022/05/27 09:39:05;;;;;;;6.30;3.33;;;18.40;71.00;;;;;;4880078;29;20529;-72
2022/05/27 09:41:40;;;;;;;8.10;3.60;;;18.40;71.10;;;;;;4878670;29;20465;-72
2022/05/27 09:44:22;;;;;;;6.80;3.73;;;18.40;71.30;;;;;;4881732;29;21043;-72
2022/05/27 09:46:51;;;;;;;6.37;3.57;;;18.40;71.10;;;;;;4882700;29;20494;-72
2022/05/27 09:49:19;;;;;;;7.40;4.03;;;18.40;71.10;;;;;;4881633;29;20479;-72
2022/05/27 09:51:48;;;;;;;6.70;3.73;;;18.40;71.10;;;;;;4872825;29;20483;-72
2022/05/27 09:54:35;;;;;;;7.00;3.30;;;18.40;71.10;;;;;;4880968;29;21047;-73
2022/05/27 09:57:25;;;;;;;7.33;3.93;;;18.30;71.30;;;;;;4881122;29;20853;-72
2022/05/27 09:59:56;;;;;;;6.27;3.63;;;18.40;71.20;;;;;;4873164;29;20474;-72
2022/05/27 10:02:30;;;;;;;10.17;4.03;;;18.40;71.20;;;;;;4892957;29;20483;-72
2022/05/27 10:05:00;;;;;;;10.90;4.03;;;18.40;71.30;;;;;;4878297;29;20463;-72
2022/05/27 10:07:35;;;;;;;7.40;3.80;;;18.40;71.30;;;;;;4879011;29;20872;-72
2022/05/27 10:10:28;;;;;;;7.60;4.10;;;18.40;71.30;;;;;;4877893;29;20474;-72
2022/05/27 10:12:59;;;;;;;7.17;4.40;;;18.40;71.40;;;;;;4895130;29;20483;-72
2022/05/27 10:15:30;;;;;;;5.80;3.57;;;18.40;71.50;;;;;;4879166;29;20490;-72
2022/05/27 10:18:14;;;;;;;7.00;3.97;;;18.40;71.40;;;;;;4896296;29;20462;-72
2022/05/27 10:20:43;;;;;;;7.20;3.83;;;18.40;71.60;;;;;;4883019;29;20974;-72
2022/05/27 10:23:20;;;;;;;8.10;4.70;;;18.40;71.70;;;;;;4879490;29;20475;-73
2022/05/27 10:25:48;;;;;;;7.10;4.50;;;18.50;71.80;;;;;;4877235;29;20477;-72
2022/05/27 10:28:29;;;;;;;6.30;3.57;;;18.50;71.70;;;;;;4875425;29;20454;-71
2022/05/27 10:31:00;;;;;;;7.10;4.30;;;18.50;71.80;;;;;;4882086;29;20485;-73
2022/05/27 10:33:39;;;;;;;9.63;4.30;;;18.50;71.90;;;;;;4888549;29;20539;-73
2022/05/27 10:36:40;;;;;;;10.23;3.83;;;18.60;72.00;;;;;;4880375;29;20473;-73
2022/05/27 10:39:12;;;;;;;5.90;3.13;;;18.60;72.10;;;;;;4876834;29;20509;-71
2022/05/27 10:42:00;;;;;;;6.40;3.73;;;18.70;71.90;;;;;;4882049;29;20471;-72
2022/05/27 10:44:41;;;;;;;5.87;3.40;;;18.70;72.00;;;;;;4888191;29;20821;-73
2022/05/27 10:47:27;;;;;;;6.93;3.60;;;18.70;71.90;;;;;;4894978;29;20478;-72
2022/05/27 10:50:06;;;;;;;6.97;3.60;;;18.80;72.10;;;;;;4886928;29;21351;-71
2022/05/27 10:52:48;;;;;;;7.90;3.60;;;18.80;72.10;;;;;;4867572;29;20499;-71
2022/05/27 10:55:22;;;;;;;5.40;3.13;;;18.90;72.00;;;;;;4883609;29;20522;-74
2022/05/27 11:04:18;;;;;;;6.03;3.50;;;19.10;71.90;;;;;;4873278;29;20505;-71
2022/05/27 11:07:08;;;;;;;6.40;3.80;;;19.10;72.00;;;;;;4891992;29;20489;-71
2022/05/27 11:09:48;;;;;;;5.87;2.90;;;19.20;72.00;;;;;;4887844;29;20475;-72
2022/05/27 11:12:27;;;;;;;9.23;3.97;;;19.30;71.90;;;;;;4882254;29;20487;-73
2022/05/27 11:15:12;;;;;;;5.87;3.60;;;19.30;71.80;;;;;;4879582;29;20893;-71
2022/05/27 11:18:00;;;;;;;6.60;3.77;;;19.40;71.70;;;;;;4876898;29;21049;-72
2022/05/27 11:20:55;;;;;;;6.70;3.43;;;19.40;71.50;;;;;;4868733;29;20468;-73
2022/05/27 11:23:50;;;;;;;7.70;3.80;;;19.30;71.10;;;;;;4881294;29;21038;-73
2022/05/27 11:26:25;;;;;;;6.17;3.40;;;19.20;71.10;;;;;;4878692;29;20478;-74
2022/05/27 11:29:10;;;;;;;6.40;3.30;;;19.20;71.10;;;;;;4863068;29;21387;-74
2022/05/27 11:31:50;;;;;;;5.43;3.23;;;19.10;71.20;;;;;;4893865;29;21029;-73
2022/05/27 11:34:26;;;;;;;7.93;4.07;;;19.20;71.20;;;;;;4893969;29;20494;-73
2022/05/27 11:37:15;;;;;;;7.00;3.90;;;19.10;71.30;;;;;;4873101;29;20490;-73
2022/05/27 11:40:17;;;;;;;6.33;3.40;;;19.10;71.40;;;;;;4870795;29;20915;-73
2022/05/27 11:43:09;;;;;;;7.10;3.10;;;19.00;71.70;;;;;;4872062;29;20498;-73
2022/05/27 11:45:41;;;;;;;7.40;3.30;;;18.90;71.60;;;;;;4871849;29;20586;-73
2022/05/27 11:48:19;;;;;;;5.63;3.60;;;18.90;71.70;;;;;;4868139;29;20473;-73
2022/05/27 11:51:10;;;;;;;7.57;4.50;;;18.90;72.00;;;;;;4873104;29;20478;-72
2022/05/27 11:54:08;;;;;;;7.50;4.17;;;18.90;72.10;;;;;;4875647;29;20833;-73
2022/05/27 11:56:49;;;;;;;5.63;3.27;;;18.90;72.30;;;;;;4889570;29;20621;-73
2022/05/27 11:59:23;;;;;;;7.53;4.00;;;18.90;72.40;;;;;;4894630;29;20450;-73
2022/05/27 12:01:57;;;;;;;7.40;3.50;;;18.90;72.60;;;;;;4893745;29;20505;-73
2022/05/27 12:04:35;;;;;;;7.07;4.00;;;18.90;72.60;;;;;;4885997;29;20468;-71
2022/05/27 12:07:13;;;;;;;11.03;4.03;;;18.80;72.90;;;;;;4872913;29;20479;-72
2022/05/27 12:09:47;;;;;;;5.90;3.77;;;18.80;72.90;;;;;;4873553;29;20464;-75
2022/05/27 12:12:21;;;;;;;7.20;4.00;;;18.80;73.00;;;;;;4871942;29;20472;-73
2022/05/27 12:14:55;;;;;;;9.03;3.80;;;18.70;73.00;;;;;;4868217;29;20536;-75
2022/05/27 12:17:32;;;;;;;7.53;4.40;;;18.70;73.00;;;;;;4865383;29;20496;-73
2022/05/27 12:20:02;;;;;;;6.90;4.33;;;18.80;73.10;;;;;;4873748;29;21046;-73
2022/05/27 12:22:33;;;;;;;7.10;3.97;;;18.80;73.30;;;;;;4892019;29;20475;-74
2022/05/27 12:25:05;;;;;;;7.73;4.43;;;18.90;73.30;;;;;;4875864;29;20467;-73
2022/05/27 12:27:34;;;;;;;6.90;4.03;;;18.90;73.40;;;;;;4889250;29;20462;-73
2022/05/27 12:30:06;;;;;;;7.87;4.57;;;18.90;73.40;;;;;;4885677;29;20511;-74
2022/05/27 12:32:35;;;;;;;8.30;4.50;;;19.00;73.40;;;;;;4884393;29;21052;-73
2022/05/27 12:35:23;;;;;;;7.27;3.97;;;19.00;73.40;;;;;;4893282;29;21004;-73
2022/05/27 12:37:59;;;;;;;7.37;3.93;;;19.00;73.30;;;;;;4892645;29;20462;-71
2022/05/27 12:40:34;;;;;;;5.50;3.27;;;19.00;73.50;;;;;;4875566;29;20986;-72
2022/05/27 12:43:12;;;;;;;5.13;3.50;;;19.00;73.30;;;;;;4866476;29;20495;-72
2022/05/27 12:45:48;;;;;;;7.50;3.10;;;19.00;73.40;;;;;;4874512;29;20487;-72
2022/05/27 12:48:31;;;;;;;7.27;3.43;;;19.00;73.50;;;;;;4887601;29;20461;-72
2022/05/27 12:51:02;;;;;;;5.50;3.33;;;19.00;73.50;;;;;;4882606;29;20469;-73
2022/05/27 12:53:45;;;;;;;5.33;3.07;;;19.00;73.50;;;;;;4896929;29;20485;-74
2022/05/27 13:02:49;;;;;;;6.67;3.57;;;19.00;73.80;;;;;;4895001;29;20842;-74
2022/05/27 13:05:20;;;;;;;6.20;2.97;;;19.00;73.90;;;;;;4870843;29;20470;-72
2022/05/27 13:07:51;;;;;;;6.17;3.87;;;19.00;73.80;;;;;;4859297;29;20460;-72
2022/05/27 13:10:48;;;;;;;6.83;3.63;;;19.10;74.00;;;;;;4871917;29;20457;-74
2022/05/27 13:13:20;;;;;;;5.40;3.10;;;19.20;74.00;;;;;;4880485;29;20497;-74
2022/05/27 13:15:54;;;;;;;5.60;3.17;;;19.20;74.10;;;;;;4882066;29;20566;-73
2022/05/27 13:18:43;;;;;;;6.57;3.03;;;19.30;74.30;;;;;;4895451;29;21012;-73
2022/05/27 13:21:19;;;;;;;5.17;2.77;;;19.40;74.30;;;;;;4884631;29;20505;-74
2022/05/27 13:24:00;;;;;;;5.10;2.57;;;19.50;74.20;;;;;;4888568;29;20510;-75
2022/05/27 13:26:39;;;;;;;5.70;2.80;;;19.50;73.90;;;;;;4895263;29;20457;-74
2022/05/27 13:29:25;;;;;;;7.90;2.33;;;19.50;73.70;;;;;;4884137;29;20452;-74
2022/05/27 13:31:58;;;;;;;4.10;2.10;;;19.50;73.50;;;;;;4886357;29;21159;-74
2022/05/27 13:34:36;;;;;;;5.90;2.80;;;19.40;73.30;;;;;;4875411;29;20487;-73
2022/05/27 13:37:13;;;;;;;5.40;2.60;;;19.30;73.30;;;;;;4879239;29;20475;-74
2022/05/27 13:39:48;;;;;;;5.20;2.20;;;19.20;73.40;;;;;;4890552;29;20958;-74
2022/05/27 13:42:28;;;;;;;5.53;2.80;;;19.20;73.60;;;;;;4887700;29;20454;-75
2022/05/27 13:44:59;;;;;;;5.20;3.03;;;19.10;73.60;;;;;;4889168;29;20481;-75
2022/05/27 13:47:49;;;;;;;9.60;2.70;;;19.10;74.20;;;;;;4896407;29;20535;-76
2022/05/27 13:50:33;;;;;;;7.60;2.10;;;18.90;74.50;;;;;;4888601;29;20535;-74
2022/05/27 13:53:22;;;;;;;6.30;2.30;;;18.50;75.20;;;;;;4887312;29;20486;-74
2022/05/27 13:55:54;;;;;;;7.10;2.13;;;18.30;75.30;;;;;;4896270;29;20922;-75